Time;durP1;ratioP1;P1;durP2;ratioP2;P2;SDS_P1;SDS_P2;PMS_P1;PMS_P2;Temp;Humidity;BMP_temperature;BMP_pressure;BME280_temperature;BME280_humidity;BME280_pressure;Samples;Min_cycle;Max_cycle;Signal;HPM_P1;HPM_P2
2021/08/06 00:02:15;;;;;;;6.55;1.92;;;15.10;99.90;;;;;;4953232;28;20418;-73
2021/08/06 00:04:40;;;;;;;4.63;2.10;;;15.10;99.90;;;;;;4953149;29;20560;-72
2021/08/06 00:07:06;;;;;;;4.25;2.08;;;15.10;99.90;;;;;;4953682;29;20028;-72
2021/08/06 00:09:35;;;;;;;3.55;2.17;;;15.00;99.90;;;;;;4953582;29;20103;-71
2021/08/06 00:12:01;;;;;;;4.50;2.45;;;15.00;99.90;;;;;;4953678;28;20019;-72
2021/08/06 00:14:27;;;;;;;2.10;2.00;;;15.00;99.90;;;;;;4952993;29;20389;-72
2021/08/06 00:16:53;;;;;;;15.98;2.85;;;14.90;99.90;;;;;;4953435;29;20114;-71
2021/08/06 00:19:19;;;;;;;2.35;1.77;;;14.90;99.90;;;;;;4936196;29;20027;-72
2021/08/06 00:21:45;;;;;;;5.22;2.05;;;14.90;99.90;;;;;;4953582;28;20027;-74
2021/08/06 00:24:11;;;;;;;4.32;1.85;;;14.80;99.90;;;;;;4953607;29;20402;-73
2021/08/06 00:26:36;;;;;;;5.45;1.90;;;14.70;99.90;;;;;;4952713;29;20038;-73
2021/08/06 00:29:02;;;;;;;2.90;1.98;;;14.70;99.90;;;;;;4953287;29;20038;-72
2021/08/06 00:31:28;;;;;;;3.17;2.30;;;14.70;99.90;;;;;;4938189;29;20031;-73
2021/08/06 00:33:53;;;;;;;5.05;2.90;;;14.70;99.90;;;;;;4953666;29;20027;-73
2021/08/06 00:36:19;;;;;;;3.67;2.75;;;14.80;99.90;;;;;;4951690;29;20054;-73
2021/08/06 00:38:45;;;;;;;6.82;2.50;;;14.80;99.90;;;;;;4953282;29;20034;-73
2021/08/06 00:41:10;;;;;;;7.13;2.55;;;14.80;99.90;;;;;;4952674;28;20035;-73
2021/08/06 00:43:36;;;;;;;5.85;2.90;;;14.80;99.90;;;;;;4952798;29;20082;-73
2021/08/06 00:46:03;;;;;;;4.10;2.63;;;14.70;99.90;;;;;;4952684;29;20027;-73
2021/08/06 00:48:29;;;;;;;5.15;2.42;;;14.70;99.90;;;;;;4953089;29;20706;-73
2021/08/06 00:50:55;;;;;;;6.25;2.78;;;14.70;99.90;;;;;;4953224;28;20027;-72
2021/08/06 00:53:22;;;;;;;2.50;2.30;;;14.70;99.90;;;;;;4935991;29;20077;-72
2021/08/06 00:55:48;;;;;;;6.38;2.50;;;14.60;99.90;;;;;;4952347;29;20444;-73
2021/08/06 00:58:14;;;;;;;6.43;2.28;;;14.50;99.90;;;;;;4953289;29;20027;-73
2021/08/06 01:00:39;;;;;;;5.03;2.40;;;14.40;99.90;;;;;;4953324;28;20107;-72
2021/08/06 01:03:19;;;;;;;4.57;2.63;;;14.40;99.90;;;;;;4956768;29;20546;-76
2021/08/06 01:06:10;;;;;;;4.53;2.45;;;14.40;99.90;;;;;;4939072;29;20126;-73
2021/08/06 01:09:15;;;;;;;3.72;2.05;;;14.30;99.90;;;;;;4956707;29;20028;-73
2021/08/06 01:11:45;;;;;;;2.55;2.35;;;14.30;99.90;;;;;;4908810;29;20611;-73
2021/08/06 01:14:16;;;;;;;3.45;2.13;;;14.20;99.90;;;;;;4956677;29;20031;-74
2021/08/06 01:16:45;;;;;;;5.68;2.45;;;14.20;99.90;;;;;;4956386;29;20070;-73
2021/08/06 01:19:30;;;;;;;4.97;2.47;;;14.20;99.90;;;;;;4939207;29;20389;-73
2021/08/06 01:22:24;;;;;;;8.60;3.15;;;14.30;99.90;;;;;;4956726;28;20070;-73
2021/08/06 01:25:03;;;;;;;2.85;2.50;;;14.40;99.90;;;;;;4964054;29;20493;-73
2021/08/06 01:27:31;;;;;;;5.63;2.85;;;14.40;99.90;;;;;;4962941;29;20038;-73
2021/08/06 01:29:57;;;;;;;4.75;2.72;;;14.30;99.90;;;;;;4956057;29;20051;-73
2021/08/06 01:32:27;;;;;;;4.85;2.67;;;14.20;99.90;;;;;;5002758;23;20453;-73
2021/08/06 01:34:53;;;;;;;4.88;2.90;;;14.20;99.90;;;;;;5001968;28;20088;-73
2021/08/06 01:37:18;;;;;;;6.03;3.13;;;14.20;99.90;;;;;;4994576;28;20473;-73
2021/08/06 01:39:44;;;;;;;5.68;3.58;;;14.20;99.90;;;;;;4994457;28;20022;-73
2021/08/06 01:42:15;;;;;;;5.95;3.70;;;14.30;99.90;;;;;;4994519;28;20180;-73
2021/08/06 01:44:59;;;;;;;7.43;3.83;;;14.30;99.90;;;;;;4993938;28;20018;-73
2021/08/06 01:47:31;;;;;;;5.13;3.35;;;14.30;99.90;;;;;;4994538;28;20026;-73
2021/08/06 01:50:02;;;;;;;3.50;3.20;;;14.30;99.90;;;;;;4994225;28;20388;-73
2021/08/06 01:52:31;;;;;;;5.35;2.60;;;14.30;99.90;;;;;;4976817;28;20025;-73
2021/08/06 01:55:02;;;;;;;3.47;3.20;;;14.40;99.90;;;;;;4993854;28;20037;-73
2021/08/06 01:57:32;;;;;;;4.15;2.80;;;14.40;99.90;;;;;;4994371;28;20461;-73
2021/08/06 02:00:00;;;;;;;4.03;3.08;;;14.60;99.90;;;;;;4994356;28;20019;-74
2021/08/06 02:02:26;;;;;;;3.28;3.00;;;14.70;99.90;;;;;;4984936;28;20034;-73
2021/08/06 02:04:52;;;;;;;5.35;3.00;;;14.80;99.90;;;;;;5013149;28;20083;-73
2021/08/06 02:07:18;;;;;;;3.25;2.95;;;14.90;99.90;;;;;;5013670;28;20022;-73
2021/08/06 02:09:45;;;;;;;3.80;2.83;;;15.00;99.90;;;;;;5013800;28;20156;-73
2021/08/06 02:12:12;;;;;;;4.07;3.30;;;15.00;99.90;;;;;;5012610;28;20025;-73
2021/08/06 02:14:38;;;;;;;4.13;3.72;;;15.00;99.90;;;;;;5012903;28;20054;-73
2021/08/06 02:17:05;;;;;;;5.95;3.42;;;14.90;99.90;;;;;;5013054;28;20116;-74
2021/08/06 02:19:32;;;;;;;2.92;2.70;;;15.10;99.90;;;;;;5013446;28;20041;-73
2021/08/06 02:22:00;;;;;;;7.60;3.70;;;15.00;99.90;;;;;;5013287;28;20037;-73
2021/08/06 02:24:30;;;;;;;4.40;3.13;;;15.10;99.90;;;;;;5012800;28;20025;-73
2021/08/06 02:26:57;;;;;;;6.03;2.83;;;15.10;99.90;;;;;;5013298;28;20030;-73
2021/08/06 02:29:26;;;;;;;3.35;2.58;;;15.00;99.90;;;;;;5012913;28;20026;-73
2021/08/06 02:31:52;;;;;;;6.40;3.03;;;15.00;99.90;;;;;;5012766;28;20038;-73
2021/08/06 02:34:19;;;;;;;3.60;3.22;;;15.00;99.90;;;;;;5011348;28;20040;-73
2021/08/06 02:36:46;;;;;;;3.85;3.00;;;15.20;99.90;;;;;;5013044;28;20030;-73
2021/08/06 02:39:19;;;;;;;4.15;3.03;;;15.30;99.90;;;;;;5011817;28;20032;-73
2021/08/06 02:41:45;;;;;;;3.22;2.92;;;15.20;99.90;;;;;;5012956;28;20022;-73
2021/08/06 02:44:12;;;;;;;4.38;2.58;;;15.20;99.90;;;;;;5012887;28;20048;-73
2021/08/06 02:46:38;;;;;;;7.80;3.13;;;15.20;99.90;;;;;;5011349;28;20029;-73
2021/08/06 02:49:04;;;;;;;7.90;3.20;;;15.20;99.90;;;;;;5012006;28;20041;-73
2021/08/06 02:51:30;;;;;;;9.10;2.97;;;15.40;99.90;;;;;;5012697;28;20034;-73
2021/08/06 02:53:56;;;;;;;5.28;2.75;;;15.30;99.90;;;;;;5012988;28;20104;-73
2021/08/06 02:56:22;;;;;;;6.78;3.05;;;15.20;99.90;;;;;;5012167;28;20121;-74
2021/08/06 02:58:47;;;;;;;3.42;2.83;;;15.30;99.90;;;;;;5012391;28;20527;-73
2021/08/06 03:01:13;;;;;;;5.25;3.33;;;15.30;99.90;;;;;;5012743;28;20029;-73
2021/08/06 03:03:39;;;;;;;12.57;3.15;;;15.20;99.90;;;;;;5012362;28;20084;-73
2021/08/06 03:06:04;;;;;;;5.13;3.42;;;15.10;99.90;;;;;;5011914;28;20033;-73
2021/08/06 03:08:30;;;;;;;5.82;3.50;;;15.10;99.90;;;;;;5012499;28;20526;-73
2021/08/06 03:10:55;;;;;;;5.28;4.20;;;15.00;99.90;;;;;;5012402;28;20030;-73
2021/08/06 03:13:21;;;;;;;8.02;4.20;;;15.00;99.90;;;;;;5012323;28;20036;-74
2021/08/06 03:15:47;;;;;;;4.68;3.47;;;14.90;99.90;;;;;;5011926;28;20030;-73
2021/08/06 03:18:13;;;;;;;3.42;3.13;;;14.80;99.90;;;;;;4994672;28;20026;-73
2021/08/06 03:20:39;;;;;;;3.00;2.80;;;14.70;99.90;;;;;;5012268;28;20018;-73
2021/08/06 03:23:05;;;;;;;4.50;3.28;;;14.80;99.90;;;;;;5012374;28;20388;-73
2021/08/06 03:25:31;;;;;;;4.07;3.22;;;14.90;99.90;;;;;;5011705;28;20026;-73
2021/08/06 03:27:58;;;;;;;4.63;2.22;;;15.00;99.90;;;;;;5012182;28;20040;-73
2021/08/06 03:30:24;;;;;;;4.32;2.92;;;14.80;99.90;;;;;;5012297;28;20076;-73
2021/08/06 03:32:50;;;;;;;8.32;2.22;;;14.80;99.90;;;;;;5011522;28;20034;-73
2021/08/06 03:35:16;;;;;;;6.30;2.40;;;14.60;99.90;;;;;;5011325;28;20096;-73
2021/08/06 03:37:43;;;;;;;8.07;3.00;;;14.80;99.90;;;;;;5012050;28;20033;-73
2021/08/06 03:40:10;;;;;;;11.10;4.05;;;15.00;99.90;;;;;;5011890;28;20026;-73
2021/08/06 03:42:36;;;;;;;6.65;3.05;;;15.10;99.90;;;;;;5011886;28;20026;-73
2021/08/06 03:45:02;;;;;;;8.70;3.05;;;15.10;99.90;;;;;;5011385;28;20424;-73
2021/08/06 03:47:27;;;;;;;4.95;2.53;;;15.00;99.90;;;;;;4994031;28;20113;-73
2021/08/06 03:49:53;;;;;;;4.15;2.40;;;14.90;99.90;;;;;;5011746;28;20057;-73
2021/08/06 03:52:19;;;;;;;3.65;2.25;;;14.80;99.90;;;;;;5011918;28;20113;-73
2021/08/06 03:54:44;;;;;;;3.53;1.90;;;14.80;99.90;;;;;;5011169;28;20056;-72
2021/08/06 03:57:10;;;;;;;3.28;2.50;;;14.80;99.90;;;;;;5011630;28;20034;-73
2021/08/06 03:59:36;;;;;;;7.65;2.92;;;14.80;99.90;;;;;;5011786;28;20026;-73
2021/08/06 04:02:02;;;;;;;4.80;2.42;;;15.00;99.90;;;;;;5011536;28;20022;-73
2021/08/06 04:04:27;;;;;;;10.35;2.70;;;15.00;99.90;;;;;;5011194;28;20034;-73
2021/08/06 04:06:53;;;;;;;6.88;3.20;;;15.00;99.90;;;;;;4993833;28;20022;-73
2021/08/06 04:09:18;;;;;;;12.00;4.28;;;15.20;99.90;;;;;;5011666;28;20026;-73
2021/08/06 04:11:44;;;;;;;5.18;3.25;;;15.30;99.90;;;;;;5011451;28;20041;-73
2021/08/06 04:14:10;;;;;;;11.98;4.20;;;15.20;99.90;;;;;;5011496;28;20068;-73
2021/08/06 04:16:36;;;;;;;4.35;2.47;;;15.20;99.90;;;;;;5010830;28;20026;-73
2021/08/06 04:19:02;;;;;;;7.70;3.10;;;15.10;99.90;;;;;;5011144;28;20044;-73
2021/08/06 04:21:28;;;;;;;3.83;2.92;;;15.00;99.90;;;;;;5004158;28;20441;-74
2021/08/06 04:23:53;;;;;;;3.10;2.90;;;15.10;99.90;;;;;;5003122;28;20080;-73
2021/08/06 04:26:19;;;;;;;6.97;3.03;;;15.10;99.90;;;;;;5010572;28;20105;-72
2021/08/06 04:28:45;;;;;;;4.07;3.65;;;15.10;99.90;;;;;;5011056;28;20022;-72
2021/08/06 04:31:11;;;;;;;4.38;3.33;;;15.20;99.90;;;;;;5011276;28;20484;-73
2021/08/06 04:33:36;;;;;;;7.20;3.25;;;15.30;99.90;;;;;;5010289;28;20648;-73
2021/08/06 04:36:02;;;;;;;6.63;3.00;;;15.30;99.90;;;;;;4995025;28;20040;-72
2021/08/06 04:38:28;;;;;;;5.10;2.65;;;15.10;99.90;;;;;;5015225;28;20050;-73
2021/08/06 04:40:54;;;;;;;6.00;2.45;;;15.20;99.90;;;;;;5015048;28;20060;-73
2021/08/06 04:43:20;;;;;;;4.70;2.10;;;15.10;99.90;;;;;;5014243;28;20030;-72
2021/08/06 04:45:49;;;;;;;3.65;2.08;;;14.80;99.90;;;;;;5013859;28;20076;-72
2021/08/06 04:48:23;;;;;;;9.52;2.58;;;14.70;99.90;;;;;;5014863;28;20030;-73
2021/08/06 04:50:49;;;;;;;5.95;2.92;;;14.70;99.90;;;;;;5014562;28;20507;-74
2021/08/06 04:53:15;;;;;;;7.07;3.45;;;14.80;99.90;;;;;;5014291;28;20076;-73
2021/08/06 04:55:42;;;;;;;4.90;2.35;;;14.90;99.90;;;;;;5013760;28;20388;-73
2021/08/06 04:58:07;;;;;;;6.20;2.80;;;15.00;99.90;;;;;;5014691;28;20030;-72
2021/08/06 05:00:34;;;;;;;4.45;2.58;;;15.00;99.90;;;;;;4997017;28;20028;-72
2021/08/06 05:02:59;;;;;;;5.78;2.25;;;15.10;99.90;;;;;;5013940;28;20069;-72
2021/08/06 05:05:25;;;;;;;3.45;2.90;;;15.10;99.90;;;;;;5013850;28;20032;-73
2021/08/06 05:07:53;;;;;;;5.90;2.50;;;15.00;99.90;;;;;;5014588;28;20034;-74
2021/08/06 05:10:22;;;;;;;7.07;3.38;;;14.90;99.90;;;;;;5014357;28;20030;-73
2021/08/06 05:12:48;;;;;;;4.50;3.10;;;15.00;99.90;;;;;;5014576;28;20029;-74
2021/08/06 05:15:14;;;;;;;6.28;2.58;;;15.20;99.90;;;;;;5014013;28;20030;-74
2021/08/06 05:17:40;;;;;;;3.88;2.85;;;15.20;99.90;;;;;;5000993;28;20080;-73
2021/08/06 05:20:07;;;;;;;2.60;2.40;;;15.20;99.90;;;;;;4995779;28;20060;-74
2021/08/06 05:22:33;;;;;;;3.47;2.28;;;15.20;99.90;;;;;;4977800;28;20028;-74
2021/08/06 05:24:58;;;;;;;3.30;2.78;;;15.30;99.90;;;;;;4993897;28;20109;-73
2021/08/06 05:27:24;;;;;;;5.60;3.13;;;15.50;99.90;;;;;;4994654;28;20033;-73
2021/08/06 05:29:50;;;;;;;3.38;2.75;;;15.50;99.90;;;;;;4994664;28;20029;-73
2021/08/06 05:32:16;;;;;;;5.97;3.17;;;15.60;99.90;;;;;;5001795;28;20040;-74
2021/08/06 05:34:41;;;;;;;4.43;3.80;;;15.70;99.90;;;;;;4995816;28;20060;-73
2021/08/06 05:37:07;;;;;;;5.80;3.78;;;15.70;99.90;;;;;;5013607;28;20089;-73
2021/08/06 05:39:33;;;;;;;6.28;3.78;;;15.80;99.90;;;;;;5013960;28;20030;-74
2021/08/06 05:41:59;;;;;;;6.47;3.75;;;15.90;99.90;;;;;;5014584;28;20021;-73
2021/08/06 05:44:24;;;;;;;6.32;3.13;;;16.00;99.90;;;;;;5014656;28;20018;-72
2021/08/06 05:46:50;;;;;;;8.00;3.65;;;16.00;99.90;;;;;;5012656;28;20075;-73
2021/08/06 05:49:16;;;;;;;6.00;3.70;;;16.00;99.90;;;;;;5013490;28;20057;-71
2021/08/06 05:51:41;;;;;;;3.75;2.92;;;16.20;99.90;;;;;;5013784;28;20041;-72
2021/08/06 05:54:07;;;;;;;4.07;3.60;;;16.30;99.90;;;;;;5013829;28;20030;-74
2021/08/06 05:56:33;;;;;;;7.10;3.08;;;16.40;99.90;;;;;;5009173;28;20595;-72
2021/08/06 05:58:58;;;;;;;3.47;2.38;;;16.50;99.90;;;;;;5011663;28;20041;-73
2021/08/06 06:01:24;;;;;;;2.83;2.53;;;16.50;99.90;;;;;;5013084;28;20018;-74
2021/08/06 06:03:50;;;;;;;2.55;1.73;;;16.50;99.90;;;;;;5011929;28;20487;-73
2021/08/06 06:06:15;;;;;;;6.43;2.10;;;16.40;99.90;;;;;;5013032;28;20026;-72
2021/08/06 06:08:41;;;;;;;5.72;2.80;;;16.50;99.90;;;;;;5014474;28;20615;-73
2021/08/06 06:11:07;;;;;;;4.45;2.35;;;16.60;99.90;;;;;;5014515;28;20028;-73
2021/08/06 06:13:32;;;;;;;2.47;2.10;;;16.70;99.90;;;;;;5014115;28;20040;-72
2021/08/06 06:16:02;;;;;;;4.68;2.20;;;16.70;99.90;;;;;;5013214;28;20026;-72
2021/08/06 06:18:27;;;;;;;4.72;2.30;;;16.90;99.90;;;;;;5014438;28;20477;-73
2021/08/06 06:20:53;;;;;;;2.40;2.20;;;16.90;99.90;;;;;;5013843;28;20034;-72
2021/08/06 06:23:19;;;;;;;3.00;2.03;;;16.80;99.90;;;;;;5013416;28;20167;-72
2021/08/06 06:25:44;;;;;;;8.00;2.85;;;16.70;99.90;;;;;;4994980;28;20022;-71
2021/08/06 06:28:10;;;;;;;3.85;2.17;;;16.60;99.90;;;;;;5010224;28;20029;-71
2021/08/06 06:30:36;;;;;;;4.97;2.85;;;16.60;99.90;;;;;;5011709;28;20022;-72
2021/08/06 06:33:04;;;;;;;3.67;2.55;;;16.70;99.90;;;;;;5012336;28;20034;-71
2021/08/06 06:35:31;;;;;;;3.50;3.20;;;16.80;99.90;;;;;;4994029;28;20033;-70
2021/08/06 06:37:57;;;;;;;3.40;2.70;;;16.90;99.90;;;;;;5009549;28;20028;-71
2021/08/06 06:40:24;;;;;;;3.90;2.85;;;17.10;99.90;;;;;;5012415;28;20100;-71
2021/08/06 06:42:50;;;;;;;5.25;2.15;;;17.10;99.90;;;;;;5003441;28;20437;-73
2021/08/06 06:45:17;;;;;;;3.33;2.25;;;17.00;99.90;;;;;;4992789;28;20061;-71
2021/08/06 06:47:47;;;;;;;3.58;2.70;;;17.00;99.90;;;;;;5006755;28;20037;-72
2021/08/06 06:50:17;;;;;;;3.45;3.15;;;17.10;99.90;;;;;;5012703;28;20036;-73
2021/08/06 06:52:43;;;;;;;3.72;2.20;;;17.40;99.90;;;;;;5012801;28;20373;-72
2021/08/06 06:55:10;;;;;;;3.10;2.00;;;17.40;99.90;;;;;;5011925;28;20105;-71
2021/08/06 06:57:43;;;;;;;3.88;2.17;;;17.30;99.90;;;;;;5012562;28;20022;-71
2021/08/06 07:00:11;;;;;;;1.70;1.52;;;17.40;99.90;;;;;;5012075;28;20049;-72
2021/08/06 07:02:37;;;;;;;2.38;1.70;;;17.60;99.90;;;;;;5012130;28;20069;-72
2021/08/06 07:05:03;;;;;;;5.60;1.50;;;17.70;99.90;;;;;;5011944;28;20058;-72
2021/08/06 07:07:29;;;;;;;1.80;1.50;;;17.90;99.90;;;;;;5012502;28;20069;-73
2021/08/06 07:09:55;;;;;;;4.28;1.88;;;17.90;99.90;;;;;;5012342;28;20105;-72
2021/08/06 07:12:20;;;;;;;2.95;1.60;;;17.80;99.90;;;;;;5012172;28;20101;-72
2021/08/06 07:14:46;;;;;;;1.70;1.60;;;17.60;99.90;;;;;;5011679;28;20053;-72
2021/08/06 07:17:12;;;;;;;1.83;1.63;;;17.50;99.90;;;;;;5012229;28;20084;-72
2021/08/06 07:19:37;;;;;;;1.85;1.50;;;17.60;99.90;;;;;;5011918;28;20026;-72
2021/08/06 07:22:03;;;;;;;4.53;1.70;;;17.80;99.90;;;;;;5011956;28;20088;-73
2021/08/06 07:24:29;;;;;;;4.28;1.85;;;17.80;99.90;;;;;;4993846;28;20033;-73
2021/08/06 07:26:54;;;;;;;3.33;1.70;;;17.90;99.90;;;;;;5011921;28;20439;-72
2021/08/06 07:29:20;;;;;;;2.70;1.73;;;17.80;99.90;;;;;;5012136;28;20038;-71
2021/08/06 07:31:46;;;;;;;1.70;1.38;;;18.00;99.90;;;;;;5012805;28;20783;-71
2021/08/06 07:34:11;;;;;;;5.18;1.75;;;17.90;99.90;;;;;;5017936;23;20454;-71
2021/08/06 07:36:37;;;;;;;1.80;1.70;;;18.10;99.90;;;;;;5004090;28;20400;-71
2021/08/06 07:39:03;;;;;;;1.52;1.38;;;18.10;99.90;;;;;;4993916;28;20383;-70
2021/08/06 07:41:28;;;;;;;1.17;1.15;;;18.20;99.90;;;;;;5011668;28;20054;-71
2021/08/06 07:43:54;;;;;;;3.33;1.75;;;18.30;99.90;;;;;;5011386;28;20026;-71
2021/08/06 07:46:20;;;;;;;3.00;1.38;;;18.60;99.90;;;;;;5011136;28;20096;-71
2021/08/06 07:48:46;;;;;;;3.47;1.63;;;18.20;99.90;;;;;;4993813;28;20022;-71
2021/08/06 07:51:11;;;;;;;1.92;1.45;;;18.30;99.90;;;;;;5011933;28;20506;-71
2021/08/06 07:53:37;;;;;;;3.58;1.50;;;18.50;99.90;;;;;;5011573;28;20059;-71
2021/08/06 07:56:03;;;;;;;1.95;1.30;;;18.70;99.90;;;;;;5010820;28;20068;-71
2021/08/06 07:58:29;;;;;;;1.20;1.10;;;18.90;99.90;;;;;;5011287;28;20026;-71
2021/08/06 08:00:54;;;;;;;2.90;1.20;;;18.80;99.90;;;;;;5011336;28;20100;-71
2021/08/06 08:03:20;;;;;;;5.32;1.42;;;18.60;99.90;;;;;;5002983;28;20045;-72
2021/08/06 08:05:46;;;;;;;1.88;1.10;;;18.90;99.90;;;;;;4991273;28;20026;-72
2021/08/06 08:08:11;;;;;;;2.80;1.08;;;19.00;99.90;;;;;;4991819;28;20523;-70
2021/08/06 08:10:37;;;;;;;3.80;1.42;;;19.30;99.90;;;;;;4993285;28;20424;-71
2021/08/06 08:13:03;;;;;;;1.20;1.02;;;19.60;99.90;;;;;;4995786;28;20487;-71
2021/08/06 08:15:28;;;;;;;4.00;1.30;;;19.40;99.90;;;;;;4977456;28;20031;-73
2021/08/06 08:17:55;;;;;;;2.40;1.20;;;19.40;99.90;;;;;;4995879;28;20026;-71
2021/08/06 08:20:20;;;;;;;1.33;0.88;;;19.80;99.90;;;;;;4995731;28;20033;-70
2021/08/06 08:22:46;;;;;;;0.90;0.90;;;19.80;99.90;;;;;;4996163;28;20019;-70
2021/08/06 08:25:13;;;;;;;2.50;0.98;;;20.00;99.90;;;;;;4995555;28;20022;-70
2021/08/06 08:27:39;;;;;;;1.30;1.05;;;20.00;99.90;;;;;;4995540;28;20034;-72
2021/08/06 08:30:07;;;;;;;1.65;0.90;;;20.10;99.90;;;;;;4995538;28;20026;-71
2021/08/06 08:32:34;;;;;;;1.50;0.73;;;20.30;99.90;;;;;;4994967;28;20093;-71
2021/08/06 08:35:00;;;;;;;1.92;0.70;;;20.70;99.90;;;;;;4994683;28;20045;-71
2021/08/06 08:37:26;;;;;;;5.15;0.75;;;20.50;99.90;;;;;;4995182;28;20480;-71
2021/08/06 08:39:52;;;;;;;1.42;0.60;;;20.70;99.90;;;;;;4994673;28;20098;-71
2021/08/06 08:42:21;;;;;;;1.77;0.73;;;20.90;99.90;;;;;;4995054;28;20060;-72
2021/08/06 08:44:47;;;;;;;2.67;1.08;;;20.40;99.90;;;;;;4994579;28;20077;-71
2021/08/06 08:47:14;;;;;;;1.75;0.57;;;21.10;99.90;;;;;;4995030;28;20034;-71
2021/08/06 08:49:40;;;;;;;1.38;0.68;;;20.90;99.90;;;;;;4994946;28;20515;-71
2021/08/06 08:52:06;;;;;;;1.55;0.80;;;21.40;99.90;;;;;;4995147;28;20404;-70
2021/08/06 08:54:32;;;;;;;1.85;0.50;;;22.20;99.90;;;;;;4994430;28;20037;-71
2021/08/06 08:56:57;;;;;;;2.58;0.60;;;21.60;99.90;;;;;;4994828;28;20030;-72
2021/08/06 08:59:23;;;;;;;3.85;0.70;;;21.90;99.90;;;;;;4994949;28;20023;-72
2021/08/06 09:01:49;;;;;;;1.38;0.50;;;22.40;99.90;;;;;;4983553;28;20018;-72
2021/08/06 09:04:30;;;;;;;1.65;0.80;;;21.90;99.90;;;;;;4983661;28;20026;-72
2021/08/06 09:06:57;;;;;;;1.27;0.63;;;21.60;99.90;;;;;;4985057;28;20019;-71
2021/08/06 09:09:25;;;;;;;0.65;0.45;;;22.10;99.90;;;;;;4984764;28;20104;-71
2021/08/06 09:12:04;;;;;;;0.95;0.80;;;21.60;99.90;;;;;;4983094;28;20043;-70
2021/08/06 09:14:31;;;;;;;1.17;0.60;;;20.80;99.90;;;;;;4984265;28;20497;-71
2021/08/06 09:17:09;;;;;;;3.22;0.65;;;20.80;99.90;;;;;;4981505;28;20018;-70
2021/08/06 09:19:41;;;;;;;1.95;0.85;;;20.80;99.90;;;;;;4983342;28;20023;-71
2021/08/06 09:22:21;;;;;;;1.40;0.77;;;21.20;99.90;;;;;;4981031;28;20031;-70
2021/08/06 09:25:08;;;;;;;4.13;0.75;;;21.10;99.90;;;;;;4983176;28;20078;-71
2021/08/06 09:27:41;;;;;;;2.60;0.73;;;21.60;99.90;;;;;;4984818;28;20027;-72
2021/08/06 09:30:14;;;;;;;1.92;0.60;;;22.30;99.90;;;;;;4982068;28;20041;-72
2021/08/06 09:32:51;;;;;;;0.55;0.47;;;22.60;99.90;;;;;;4984307;28;20098;-71
2021/08/06 09:35:19;;;;;;;2.65;0.60;;;23.30;99.90;;;;;;4983985;28;20034;-70
2021/08/06 09:37:46;;;;;;;0.85;0.50;;;23.20;99.90;;;;;;4981192;28;20540;-71
2021/08/06 09:40:20;;;;;;;0.50;0.47;;;22.50;99.90;;;;;;4982441;28;20035;-71
2021/08/06 09:42:49;;;;;;;1.80;0.75;;;22.40;99.90;;;;;;4982182;28;20073;-71
2021/08/06 09:45:16;;;;;;;0.88;0.45;;;22.10;99.90;;;;;;4981930;28;20022;-71
2021/08/06 09:47:45;;;;;;;5.50;1.05;;;22.10;99.90;;;;;;4983509;28;20018;-71
2021/08/06 09:50:17;;;;;;;2.22;0.60;;;22.00;99.90;;;;;;4982349;28;20077;-70
2021/08/06 09:52:46;;;;;;;2.47;1.00;;;21.80;99.90;;;;;;4981375;28;20011;-72
2021/08/06 09:55:22;;;;;;;3.83;0.85;;;21.80;99.90;;;;;;4982286;28;20373;-72
2021/08/06 09:57:50;;;;;;;1.70;0.82;;;21.60;99.90;;;;;;4983633;28;20090;-71
2021/08/06 10:00:18;;;;;;;0.80;0.77;;;21.20;99.90;;;;;;4982759;28;20026;-71
2021/08/06 10:02:44;;;;;;;1.85;0.60;;;20.50;99.90;;;;;;4966009;28;20033;-72
2021/08/06 10:05:13;;;;;;;1.80;0.90;;;20.20;99.90;;;;;;4974898;28;20030;-72
2021/08/06 10:07:41;;;;;;;1.42;0.80;;;20.20;99.90;;;;;;4981507;28;20069;-71
2021/08/06 10:10:22;;;;;;;2.85;1.02;;;20.10;99.90;;;;;;4975361;28;20030;-72
2021/08/06 10:12:48;;;;;;;3.33;0.82;;;19.80;99.90;;;;;;4974522;28;20110;-73
2021/08/06 10:15:16;;;;;;;3.72;1.00;;;20.00;99.90;;;;;;4973903;28;20637;-75
2021/08/06 10:17:43;;;;;;;1.40;0.80;;;20.10;99.90;;;;;;4974405;28;20090;-75
2021/08/06 10:20:12;;;;;;;3.50;1.00;;;20.40;99.90;;;;;;4973957;28;20106;-73
2021/08/06 10:22:38;;;;;;;2.40;0.90;;;20.60;99.90;;;;;;4975358;28;20026;-73
2021/08/06 10:25:07;;;;;;;4.57;1.13;;;20.70;99.90;;;;;;4992996;28;20022;-73
2021/08/06 10:27:34;;;;;;;3.20;0.85;;;21.00;99.90;;;;;;4993575;28;20526;-74
2021/08/06 10:30:10;;;;;;;1.60;0.68;;;20.90;99.90;;;;;;4993498;28;20033;-74
2021/08/06 10:32:37;;;;;;;1.17;0.80;;;21.30;99.90;;;;;;4992938;28;20548;-75
2021/08/06 10:35:05;;;;;;;1.98;0.90;;;21.40;99.90;;;;;;4992345;28;20034;-75
2021/08/06 10:37:49;;;;;;;4.28;0.80;;;21.70;99.90;;;;;;4976195;28;20526;-75
2021/08/06 10:40:33;;;;;;;1.40;0.80;;;21.70;99.90;;;;;;4993275;28;20026;-76
2021/08/06 10:43:11;;;;;;;1.13;0.70;;;21.60;99.90;;;;;;4987362;28;20027;-75
2021/08/06 10:45:46;;;;;;;1.75;0.65;;;21.60;99.90;;;;;;4963215;28;20426;-73
2021/08/06 10:48:31;;;;;;;2.45;0.77;;;21.80;99.90;;;;;;4973837;28;20077;-75
2021/08/06 10:51:11;;;;;;;2.97;0.77;;;21.70;99.90;;;;;;4973935;28;20029;-73
2021/08/06 10:53:38;;;;;;;1.20;0.68;;;21.90;99.90;;;;;;4973711;28;20026;-74
2021/08/06 10:56:21;;;;;;;3.78;1.00;;;22.10;99.90;;;;;;4972948;28;20033;-72
2021/08/06 10:58:49;;;;;;;4.28;1.08;;;22.10;99.90;;;;;;4973705;28;20015;-71
2021/08/06 11:01:27;;;;;;;2.25;0.75;;;22.20;99.90;;;;;;4973517;28;20559;-72
2021/08/06 11:04:27;;;;;;;1.60;0.90;;;21.90;99.90;;;;;;4985748;28;20026;-72
2021/08/06 11:06:55;;;;;;;3.60;1.00;;;21.60;99.90;;;;;;4992574;28;20057;-71
2021/08/06 11:09:24;;;;;;;2.00;1.10;;;21.50;99.90;;;;;;4992419;28;20033;-71
2021/08/06 11:11:57;;;;;;;2.55;0.90;;;21.80;99.90;;;;;;4992840;28;20030;-72
2021/08/06 11:14:29;;;;;;;1.52;0.90;;;21.20;99.90;;;;;;4991949;28;20415;-71
2021/08/06 11:17:09;;;;;;;1.45;0.57;;;22.00;99.90;;;;;;4992633;28;20499;-72
2021/08/06 11:19:36;;;;;;;3.88;1.10;;;22.70;99.90;;;;;;4992106;28;20061;-71
2021/08/06 11:22:07;;;;;;;2.60;1.02;;;23.30;99.90;;;;;;4992819;28;20032;-75
2021/08/06 11:24:41;;;;;;;2.20;0.80;;;23.40;99.90;;;;;;4992235;28;20014;-77
2021/08/06 11:27:08;;;;;;;3.00;0.95;;;23.20;99.90;;;;;;4992640;28;20507;-73
2021/08/06 11:29:34;;;;;;;1.85;0.90;;;23.10;99.90;;;;;;4992279;28;20128;-73
2021/08/06 11:32:12;;;;;;;2.92;0.90;;;22.70;99.90;;;;;;4992615;28;20074;-75
2021/08/06 11:34:50;;;;;;;3.95;0.80;;;23.40;99.90;;;;;;4991580;28;20108;-75
2021/08/06 11:37:16;;;;;;;1.80;0.70;;;23.70;99.90;;;;;;4974661;28;20026;-76
2021/08/06 11:40:07;;;;;;;2.80;0.80;;;24.70;99.90;;;;;;4992298;28;20145;-76
2021/08/06 11:42:34;;;;;;;0.70;0.70;;;26.10;99.90;;;;;;4992575;28;20041;-75
2021/08/06 11:44:59;;;;;;;1.33;0.80;;;25.80;99.90;;;;;;4990932;28;20022;-76
2021/08/06 11:47:40;;;;;;;3.45;1.15;;;25.90;99.90;;;;;;4992609;28;20186;-75
2021/08/06 11:50:08;;;;;;;1.63;0.80;;;26.30;99.90;;;;;;4991965;28;20114;-75
2021/08/06 11:52:42;;;;;;;2.70;0.80;;;26.80;99.90;;;;;;4970151;28;20490;-74
2021/08/06 11:55:09;;;;;;;0.70;0.70;;;28.20;99.00;;;;;;4986200;28;20034;-72
2021/08/06 11:58:01;;;;;;;0.98;0.88;;;27.20;98.40;;;;;;4987155;28;20023;-70
2021/08/06 12:00:30;;;;;;;1.58;0.75;;;26.00;99.90;;;;;;4989881;28;20117;-69
2021/08/06 12:03:05;;;;;;;5.78;0.80;;;26.50;99.90;;;;;;4992010;28;20051;-71
2021/08/06 12:05:32;;;;;;;0.90;0.70;;;27.80;99.90;;;;;;4973525;28;20030;-71
2021/08/06 12:07:57;;;;;;;2.83;0.90;;;26.00;99.10;;;;;;4974645;28;20022;-71
2021/08/06 12:10:27;;;;;;;1.23;0.80;;;25.90;99.90;;;;;;4991866;28;20030;-71
2021/08/06 12:12:54;;;;;;;2.40;0.70;;;25.20;99.90;;;;;;4991498;28;20037;-71
2021/08/06 12:15:25;;;;;;;1.17;0.68;;;23.90;99.90;;;;;;4974822;28;20165;-78
2021/08/06 12:18:19;;;;;;;1.97;0.90;;;23.90;99.90;;;;;;4992658;28;20021;-78
2021/08/06 12:20:55;;;;;;;1.23;0.80;;;24.40;99.90;;;;;;4972229;28;20115;-75
2021/08/06 12:23:22;;;;;;;2.22;0.98;;;25.20;99.90;;;;;;4991553;28;20044;-71
2021/08/06 12:26:07;;;;;;;3.17;1.15;;;26.10;99.90;;;;;;4990708;28;20030;-74
2021/08/06 12:28:35;;;;;;;2.63;0.93;;;27.70;98.10;;;;;;4991687;28;20504;-75
2021/08/06 12:31:23;;;;;;;1.55;0.70;;;27.70;98.90;;;;;;4991991;28;20061;-75
2021/08/06 12:34:10;;;;;;;2.25;0.70;;;26.70;98.00;;;;;;4990865;28;20034;-77
2021/08/06 12:36:38;;;;;;;2.17;0.80;;;26.10;97.20;;;;;;4974118;28;20030;-77
2021/08/06 12:39:07;;;;;;;0.88;0.55;;;25.80;98.50;;;;;;4975101;28;20117;-78
2021/08/06 12:41:33;;;;;;;1.42;0.57;;;26.80;99.20;;;;;;4978592;28;20031;-77
2021/08/06 12:44:18;;;;;;;2.03;0.80;;;27.90;97.80;;;;;;4995651;28;20603;-78
2021/08/06 12:47:08;;;;;;;2.03;0.90;;;26.40;97.30;;;;;;4995101;28;20022;-78
2021/08/06 12:49:39;;;;;;;3.60;0.90;;;25.30;98.90;;;;;;4989123;28;20097;-77
2021/08/06 12:52:08;;;;;;;1.97;0.80;;;24.50;99.40;;;;;;4999406;28;20165;-78
2021/08/06 12:54:54;;;;;;;4.70;0.90;;;24.30;99.90;;;;;;4975030;28;20270;-77